Oakland, Tennessee
Current Conditions -  °F | °C
As of 8:50 AM on Friday 19 Dec 2014 (Local Time) from KNQA Reporting Station
Overcast Overcast  
Wind Chill: 35°   Ceiling: 3600
Heat Index: 39°   Visibility: 10mi
Dew Point: 36°   Wind: 6mph
Humidity: 87%   Direction: 40°NE
Pressure: 30.27"   Gusts: NA
Location:  35.23°N, 89.52°W
Report Text: KNQA 191450Z 04005KT 10SM OVC036 04/02 A3027
Loading
Personal Weather Stations






























Interactive Weather Map New forecast layout! Learn more

10-Day Weather Forecast

Advertisements
Track Severe Weather on mobile